Terminal Aerodrome Forecast
Issued by NWS

Home | Current Version | Previous Version | Text Only | Print | Product List | Glossary On
Versions: 1 2 3 4 5 6 7 8 9 10 11 12 13 14 15 16 17 18 19 20 21 22 23 24 25 26
000
FTUS46 KPDT 271100
TAFPSC
TAF
KPSC 271140Z 2712/2812 17004KT 6SM BR SCT002 SCT100
     FM271400 21006KT 6SM BR FEW003 SCT120
     FM271600 21010KT P6SM OVC080
     FM280300 22007KT P6SM OVC100=

USA.gov is the U.S. government's official web portal to all federal, state and local government web resources and services.